Weather observations for the past three days for
Harry Reid International Airport
Imperial (Metric)
Date Time (pdt) Wind (mph) Vis. (mi.) Weather Sky Cond. Temperature (ºF) Relative Humidity Wind Chill (°F) Heat Index (°F) Pressure Precipitation (in)
Air Dwpt 6 hour altimeter (in) sea level (mb) 1 hr 3 hr 6 hr
Max. Min.
05 08:56 S 13 G 22 10.00 Fair CLR 81 37.9 21% 79 29.96 1011.9
05 07:56 S 13 G 21 10.00 Fair CLR 79 37.9 23% 78 29.96 1011.8
05 06:56 S 10 G 18 10.00 Fair CLR 77 37.9 24% 77 29.94 1011.2
05 05:56 S 9 10.00 Fair CLR 75.9 37.9 25% 77 29.92 1010.3
05 04:56 S 9 10.00 Fair CLR 77 39 84 77 26% 77 29.91 1010.1
05 03:56 S 13 G 22 10.00 A Few Clouds FEW200 FEW250 78.1 39 25% 78 29.91 1009.9
05 02:56 S 10 10.00 A Few Clouds FEW200 FEW250 79 39 24% 78 29.91 1009.8
05 01:56 S 7 10.00 A Few Clouds FEW250 80.1 37.9 22% 79 29.9 1009.7
05 00:56 SW 9 10.00 Partly Cloudy SCT250 82 37.9 21% 80 29.89 1009.5
04 23:56 S 8 G 20 10.00 Partly Cloudy SCT250 84 32 15% 81 29.87 1008.7
04 22:56 S 3 10.00 Partly Cloudy SCT250 84 32 96.1 84 15% 81 29.86 1008.4
04 21:56 SW 5 10.00 Partly Cloudy SCT250 84.9 30.9 14% 82 29.85 1008.2
04 20:56 SW 9 10.00 A Few Clouds FEW250 88 30.9 13% 84 29.84 1007.8
04 19:56 SW 10 10.00 A Few Clouds FEW250 89.1 30.9 12% 85 29.82 1007.2
04 18:56 SW 14 10.00 A Few Clouds FEW250 91 30.9 12% 87 29.81 1006.9
04 17:56 W 15 G 23 10.00 Fair CLR 93.9 28.9 10% 89 29.81 1006.6
04 16:56 SW 12 G 24 10.00 Fair CLR 96.1 28.9 97 88 9% 91 29.81 1006.6
04 15:56 SW 12 G 25 10.00 Fair CLR 96.1 30 10% 91 29.81 1006.5
04 14:56 S 15 G 28 10.00 Fair CLR 96.1 28.9 9% 91 29.82 1007.1
04 13:56 SW 16 G 22 10.00 Fair CLR 95 30.9 10% 90 29.84 1007.6
04 12:56 SW 14 G 23 10.00 Fair CLR 91.9 33.1 12% 88 29.86 1008.4
04 11:56 S 16 G 28 10.00 Fair CLR 91 35.1 14% 87 29.89 1009.3
04 10:56 S 12 G 24 10.00 Fair CLR 88 36 88 75 16% 84 29.9 1009.8
04 09:56 S 14 G 25 10.00 Fair CLR 84 39 20% 81 29.9 1009.7
04 08:56 S 15 G 24 10.00 Fair CLR 81 41 24% 79 29.89 1009.5
04 07:56 S 12 G 24 10.00 Fair CLR 78.1 42.1 28% 78 29.88 1009.3
04 06:56 S 14 10.00 Fair CLR 75.9 42.1 30% 77 29.86 1008.5
04 05:56 S 7 10.00 Fair CLR 75.9 42.1 30% 77 29.85 1008.2
04 04:56 S 9 10.00 Fair CLR 77 42.1 84 77 29% 78 29.84 1007.6
04 03:56 S 10 G 17 10.00 Fair CLR 78.1 42.1 28% 78 29.82 1007.0
04 02:56 S 12 10.00 Fair CLR 78.1 42.1 28% 78 29.81 1006.6
04 01:56 S 10 10.00 Fair CLR 80.1 37.9 22% 79 29.81 1006.5
04 00:56 SE 6 10.00 Fair CLR 81 30.9 16% 79 29.8 1006.4
03 23:56 S 7 10.00 Fair CLR 82.9 27 13% 80 29.8 1006.1
03 22:56 SE 5 10.00 Fair CLR 82.9 26.1 95 82.9 12% 80 29.78 1005.7
03 21:56 S 7 10.00 Fair CLR 84.9 27 12% 82 29.79 1006.2
03 20:56 S 5 10.00 Fair CLR 87.1 28 12% 83 29.79 1006.2
03 19:56 SW 12 10.00 Fair CLR 88 28 11% 84 29.77 1005.6
03 18:56 SW 14 10.00 Fair CLR 90 28 11% 86 29.77 1005.4
03 17:56 SW 14 G 24 10.00 Fair CLR 93 28 10% 88 29.77 1005.3
03 16:56 SW 17 G 25 10.00 Fair CLR 95 28 96.1 86 9% 90 29.77 1005.5
03 15:56 S 8 G 26 10.00 Fair CLR 95 27 9% 90 29.79 1006.0
03 14:56 S 9 G 21 10.00 Fair CLR 93.9 28 9% 89 29.81 1006.6
03 13:56 SW 17 G 24 10.00 Fair CLR 93.9 30 10% 89 29.83 1007.3
03 12:56 SW 16 G 28 10.00 Fair CLR 91.9 30 11% 88 29.84 1007.8
03 11:56 S 13 G 22 10.00 Fair CLR 89.1 30.9 12% 85 29.87 1008.8
03 10:56 S 10 G 25 10.00 Fair CLR 87.1 30 87.1 73.9 13% 83 29.89 1009.3
03 09:56 S 12 G 24 10.00 Fair CLR 84 32 15% 81 29.9 1009.8
03 08:56 S 16 G 26 10.00 Fair CLR 81 32 17% 79 29.89 1009.7
03 07:56 S 9 10.00 Fair CLR 77 33.1 20% 77 29.9 1009.9
03 06:56 S 10 10.00 A Few Clouds FEW150 73.9 32 21% 29.88 1009.3
03 05:56 S 17 G 26 10.00 Fair CLR 73.9 32 21% 29.87 1009.0
03 04:56 S 8 10.00 Fair CLR 75 30.9 84 75 20% 76 29.87 1008.9
03 03:56 S 12 G 22 10.00 Fair CLR 77 28.9 17% 77 29.88 1008.9
03 02:56 SW 17 G 28 10.00 Fair CLR 79 30 17% 78 29.88 1008.9
03 00:56 S 9 10.00 Fair CLR 80.1 26.1 14% 78 29.88 1009.0
02 23:56 S 9 G 20 10.00 Fair CLR 82.9 21.9 10% 80 29.88 1008.9
02 22:56 SW 16 10.00 Fair CLR 84 17.1 93 82.9 8% 81 29.87 1008.5
02 21:56 S 6 10.00 Fair CLR 84.9 17.1 8% 82 29.87 1008.6
02 20:56 S 8 10.00 Fair CLR 87.1 16 7% 84 29.86 1008.4
02 19:56 S 10 G 18 10.00 A Few Clouds FEW250 88 16 7% 84 29.84 1007.9
02 18:56 SW 15 G 24 10.00 A Few Clouds FEW250 90 14 6% 86 29.85 1008.1
02 17:56 SW 16 G 26 10.00 Fair CLR 91.9 12 5% 88 29.85 1008.2
02 16:56 SW 20 G 26 10.00 Fair CLR 93 10 95 88 4% 89 29.86 1008.3
02 15:56 SW 16 G 32 10.00 A Few Clouds FEW250 95 6.1 3% 90 29.86 1008.4
02 14:56 SW 17 G 28 10.00 A Few Clouds FEW250 93.9 7 4% 89 29.88 1009.2
02 13:56 SW 22 G 33 10.00 A Few Clouds and Breezy FEW250 93.9 3.9 3% 89 29.91 1010.0
02 12:56 SW 17 G 26 10.00 A Few Clouds FEW250 93 6.1 4% 89 29.92 1010.4
02 11:56 SW 20 G 29 10.00 A Few Clouds FEW250 90 10 5% 86 29.95 1011.4
02 10:56 S 13 G 29 10.00 A Few Clouds FEW250 88 12 88 73.9 6% 84 29.96 1011.7
02 09:56 S 10 G 17 10.00 A Few Clouds FEW250 86 15.1 7% 83 29.96 1011.8
Date Time (pdt) Wind (mph) Vis. (mi.) Weather Sky Cond. Air Dwpt Max. Min. Relative Humidity Wind Chill (°F) Heat Index (°F) altimeter (in) sea level (mb) 1 hr 3 hr 6 hr
6 hour
Temperature (ºF) Pressure Precipitation (in)